Time,TemperatureF,DewpointF,PressureIn,WindDirection,WindDirectionDegrees,WindSpeedMPH,WindSpeedGustMPH,Humidity,HourlyPrecipIn,Conditions,Clouds,dailyrainin,SoftwareType,DateUTC
2013-03-03 00:02:00,52.1,45.0,29.87,NNW,335,3.0,6.0,78,0.00,,,0.00,weatherlink.com 1.10,2013-03-02 22:02:00,
2013-03-03 00:17:00,52.1,45.0,29.86,NW,316,4.0,12.0,78,0.00,,,0.00,weatherlink.com 1.10,2013-03-02 22:17:00,
2013-03-03 00:32:00,52.1,45.0,29.86,North,355,4.0,5.0,78,0.00,,,0.00,weatherlink.com 1.10,2013-03-02 22:32:00,
2013-03-03 00:47:00,52.7,46.0,29.85,NNE,32,4.0,14.0,78,0.00,,,0.00,weatherlink.com 1.10,2013-03-02 22:47:00,
2013-03-03 01:03:00,52.8,46.0,29.85,ENE,57,2.0,15.0,78,0.00,,,0.00,weatherlink.com 1.10,2013-03-02 23:03:00,
2013-03-03 01:18:00,52.9,46.0,29.84,NNW,348,1.0,14.0,77,0.00,,,0.00,weatherlink.com 1.10,2013-03-02 23:18:00,
2013-03-03 01:33:00,52.9,47.0,29.84,NW,324,6.0,17.0,79,0.00,,,0.00,weatherlink.com 1.10,2013-03-02 23:33:00,
2013-03-03 01:48:00,52.3,47.0,29.83,North,5,1.0,12.0,81,0.00,,,0.00,weatherlink.com 1.10,2013-03-02 23:48:00,
2013-03-03 02:03:00,52.6,47.0,29.82,NNE,15,8.0,15.0,80,0.00,,,0.00,weatherlink.com 1.10,2013-03-03 00:03:00,
2013-03-03 02:18:00,52.9,47.0,29.81,NNW,340,7.0,14.0,81,0.00,,,0.00,weatherlink.com 1.10,2013-03-03 00:18:00,
2013-03-03 02:33:00,52.9,48.0,29.81,North,360,4.0,16.0,82,0.00,,,0.00,weatherlink.com 1.10,2013-03-03 00:33:00,
2013-03-03 02:48:00,52.3,48.0,29.81,NE,56,8.0,11.0,84,0.00,,,0.00,weatherlink.com 1.10,2013-03-03 00:48:00,
2013-03-03 03:03:00,51.9,48.0,29.80,NE,40,2.0,11.0,85,0.00,,,0.00,weatherlink.com 1.10,2013-03-03 01:03:00,
2013-03-03 03:18:00,51.7,47.0,29.79,North,5,6.0,15.0,85,0.00,,,0.00,weatherlink.com 1.10,2013-03-03 01:18:00,
2013-03-03 03:33:00,51.5,47.0,29.78,NW,323,7.0,16.0,85,0.01,,,0.01,weatherlink.com 1.10,2013-03-03 01:33:00,
2013-03-03 03:48:00,51.1,47.0,29.78,NNE,31,6.0,6.0,87,0.01,,,0.01,weatherlink.com 1.10,2013-03-03 01:48:00,
2013-03-03 04:03:00,50.9,48.0,29.78,NNW,337,1.0,5.0,88,0.01,,,0.01,weatherlink.com 1.10,2013-03-03 02:03:00,
2013-03-03 04:18:00,50.6,48.0,29.78,NNE,17,1.0,10.0,89,0.02,,,0.02,weatherlink.com 1.10,2013-03-03 02:18:00,
2013-03-03 04:33:00,50.4,47.0,29.77,NW,319,4.0,7.0,89,0.02,,,0.02,weatherlink.com 1.10,2013-03-03 02:33:00,
2013-03-03 04:48:00,50.1,47.0,29.77,North,5,0.0,6.0,90,0.04,,,0.05,weatherlink.com 1.10,2013-03-03 02:48:00,
2013-03-03 05:03:00,50.0,48.0,29.77,NE,42,1.0,6.0,91,0.07,,,0.08,weatherlink.com 1.10,2013-03-03 03:03:00,
2013-03-03 05:18:00,49.7,47.0,29.77,NW,319,5.0,9.0,91,0.08,,,0.09,weatherlink.com 1.10,2013-03-03 03:18:00,
2013-03-03 05:33:00,49.5,47.0,29.77,NNE,33,3.0,13.0,91,0.09,,,0.12,weatherlink.com 1.10,2013-03-03 03:33:00,
2013-03-03 05:48:00,49.3,47.0,29.76,NW,317,5.0,15.0,91,0.09,,,0.14,weatherlink.com 1.10,2013-03-03 03:48:00,
2013-03-03 06:03:00,49.0,47.0,29.76,NW,306,2.0,14.0,91,0.08,,,0.16,weatherlink.com 1.10,2013-03-03 04:03:00,
2013-03-03 06:18:00,49.2,47.0,29.76,ENE,70,5.0,18.0,90,0.09,,,0.19,weatherlink.com 1.10,2013-03-03 04:18:00,
2013-03-03 06:33:00,49.2,47.0,29.76,North,360,4.0,13.0,90,0.09,,,0.20,weatherlink.com 1.10,2013-03-03 04:33:00,
2013-03-03 06:50:00,49.1,46.0,29.75,NE,40,0.0,13.0,90,0.08,,,0.22,weatherlink.com 1.10,2013-03-03 04:50:00,
2013-03-03 07:03:00,49.0,46.0,29.76,NE,43,2.0,15.0,89,0.07,,,0.24,weatherlink.com 1.10,2013-03-03 05:03:00,
2013-03-03 07:18:00,48.9,46.0,29.76,NE,38,4.0,11.0,90,0.06,,,0.24,weatherlink.com 1.10,2013-03-03 05:18:00,
2013-03-03 07:33:00,48.6,46.0,29.76,ENE,65,12.0,12.0,90,0.05,,,0.26,weatherlink.com 1.10,2013-03-03 05:33:00,
2013-03-03 07:48:00,48.5,46.0,29.76,North,360,5.0,14.0,90,0.06,,,0.28,weatherlink.com 1.10,2013-03-03 05:48:00,
2013-03-03 08:03:00,48.7,46.0,29.76,NNW,344,3.0,14.0,90,0.04,,,0.28,weatherlink.com 1.10,2013-03-03 06:03:00,
2013-03-03 08:18:00,48.9,46.0,29.77,North,360,4.0,13.0,90,0.04,,,0.28,weatherlink.com 1.10,2013-03-03 06:18:00,
2013-03-03 08:33:00,49.2,47.0,29.77,NNE,21,9.0,17.0,90,0.02,,,0.28,weatherlink.com 1.10,2013-03-03 06:33:00,
2013-03-03 08:48:00,49.5,47.0,29.78,North,5,6.0,14.0,90,0.01,,,0.28,weatherlink.com 1.10,2013-03-03 06:48:00,
2013-03-03 09:03:00,49.7,47.0,29.78,NE,43,11.0,17.0,89,0.01,,,0.28,weatherlink.com 1.10,2013-03-03 07:03:00,
2013-03-03 09:18:00,49.7,47.0,29.78,North,5,6.0,13.0,89,0.01,,,0.29,weatherlink.com 1.10,2013-03-03 07:18:00,
2013-03-03 09:33:00,49.7,46.0,29.78,North,5,4.0,16.0,87,0.01,,,0.29,weatherlink.com 1.10,2013-03-03 07:33:00,
2013-03-03 09:48:00,49.8,46.0,29.78,NW,320,14.0,18.0,86,0.01,,,0.29,weatherlink.com 1.10,2013-03-03 07:48:00,
2013-03-03 10:03:00,49.9,46.0,29.78,NNE,28,7.0,22.0,85,0.01,,,0.29,weatherlink.com 1.10,2013-03-03 08:03:00,
2013-03-03 10:18:00,50.1,46.0,29.78,NE,40,8.0,23.0,84,0.00,,,0.29,weatherlink.com 1.10,2013-03-03 08:18:00,
2013-03-03 10:33:00,50.2,45.0,29.78,NW,313,6.0,23.0,82,0.00,,,0.29,weatherlink.com 1.10,2013-03-03 08:33:00,
2013-03-03 10:48:00,50.6,45.0,29.79,North,11,14.0,24.0,81,0.00,,,0.29,weatherlink.com 1.10,2013-03-03 08:48:00,
2013-03-03 11:03:00,51.0,45.0,29.78,North,355,17.0,24.0,79,0.00,,,0.29,weatherlink.com 1.10,2013-03-03 09:03:00,
2013-03-03 11:18:00,51.2,45.0,29.79,NNE,12,11.0,25.0,78,0.00,,,0.29,weatherlink.com 1.10,2013-03-03 09:18:00,
2013-03-03 11:33:00,51.6,44.0,29.80,NNE,15,6.0,25.0,74,0.00,,,0.29,weatherlink.com 1.10,2013-03-03 09:33:00,
2013-03-03 11:48:00,51.9,43.0,29.80,North,355,8.0,25.0,72,0.00,,,0.29,weatherlink.com 1.10,2013-03-03 09:48:00,
2013-03-03 12:04:00,52.3,43.0,29.81,NE,38,17.0,21.0,71,0.00,,,0.29,weatherlink.com 1.10,2013-03-03 10:04:00,
2013-03-03 12:19:00,53.0,43.0,29.81,NNE,23,19.0,25.0,69,0.00,,,0.29,weatherlink.com 1.10,2013-03-03 10:19:00,
2013-03-03 12:34:00,53.8,44.0,29.80,ENE,66,13.0,18.0,69,0.00,,,0.29,weatherlink.com 1.10,2013-03-03 10:34:00,
2013-03-03 12:49:00,53.5,42.0,29.82,North,355,10.0,20.0,66,0.00,,,0.29,weatherlink.com 1.10,2013-03-03 10:49:00,
2013-03-03 13:04:00,54.2,43.0,29.81,NNE,19,10.0,30.0,65,0.00,,,0.29,weatherlink.com 1.10,2013-03-03 11:04:00,
2013-03-03 13:19:00,53.7,42.0,29.81,North,355,6.0,20.0,66,0.00,,,0.29,weatherlink.com 1.10,2013-03-03 11:19:00,
2013-03-03 13:34:00,53.5,42.0,29.81,NW,318,6.0,23.0,65,0.00,,,0.29,weatherlink.com 1.10,2013-03-03 11:34:00,
2013-03-03 13:49:00,53.7,42.0,29.82,NNW,348,9.0,20.0,64,0.00,,,0.29,weatherlink.com 1.10,2013-03-03 11:49:00,
2013-03-03 14:04:00,54.0,42.0,29.82,NE,34,3.0,19.0,63,0.00,,,0.29,weatherlink.com 1.10,2013-03-03 12:04:00,
2013-03-03 14:19:00,53.7,41.0,29.82,North,355,12.0,19.0,63,0.00,,,0.29,weatherlink.com 1.10,2013-03-03 12:19:00,
2013-03-03 14:34:00,54.1,41.0,29.83,NNW,335,15.0,21.0,61,0.00,,,0.29,weatherlink.com 1.10,2013-03-03 12:34:00,
2013-03-03 14:49:00,53.6,41.0,29.83,NW,304,10.0,21.0,62,0.00,,,0.29,weatherlink.com 1.10,2013-03-03 12:49:00,
2013-03-03 15:04:00,53.9,41.0,29.83,NNE,13,12.0,15.0,61,0.00,,,0.29,weatherlink.com 1.10,2013-03-03 13:04:00,
2013-03-03 15:19:00,53.7,40.0,29.83,NW,325,8.0,21.0,60,0.00,,,0.29,weatherlink.com 1.10,2013-03-03 13:19:00,
2013-03-03 15:34:00,53.8,40.0,29.83,NE,48,11.0,16.0,60,0.00,,,0.29,weatherlink.com 1.10,2013-03-03 13:34:00,
2013-03-03 15:49:00,53.2,39.0,29.83,WNW,300,12.0,18.0,60,0.00,,,0.29,weatherlink.com 1.10,2013-03-03 13:49:00,
2013-03-03 16:04:00,52.9,40.0,29.84,NW,319,3.0,15.0,62,0.00,,,0.29,weatherlink.com 1.10,2013-03-03 14:04:00,
2013-03-03 16:19:00,52.7,40.0,29.84,NNW,340,13.0,21.0,62,0.00,,,0.29,weatherlink.com 1.10,2013-03-03 14:19:00,
2013-03-03 16:34:00,52.8,39.0,29.84,NE,44,10.0,17.0,61,0.00,,,0.29,weatherlink.com 1.10,2013-03-03 14:34:00,
2013-03-03 16:49:00,52.3,39.0,29.85,North,360,6.0,18.0,61,0.00,,,0.29,weatherlink.com 1.10,2013-03-03 14:49:00,
2013-03-03 17:04:00,52.4,39.0,29.86,NW,323,7.0,15.0,61,0.00,,,0.29,weatherlink.com 1.10,2013-03-03 15:04:00,
2013-03-03 17:19:00,52.1,38.0,29.86,NE,43,8.0,19.0,60,0.00,,,0.29,weatherlink.com 1.10,2013-03-03 15:19:00,
2013-03-03 17:34:00,51.8,39.0,29.86,NNE,30,7.0,11.0,61,0.00,,,0.29,weatherlink.com 1.10,2013-03-03 15:34:00,
2013-03-03 17:49:00,51.3,38.0,29.86,NNE,18,4.0,16.0,61,0.00,,,0.29,weatherlink.com 1.10,2013-03-03 15:49:00,
2013-03-03 18:04:00,50.8,38.0,29.87,NNW,327,5.0,13.0,62,0.00,,,0.29,weatherlink.com 1.10,2013-03-03 16:04:00,
2013-03-03 18:19:00,50.5,38.0,29.87,NNE,13,10.0,12.0,63,0.00,,,0.29,weatherlink.com 1.10,2013-03-03 16:19:00,
2013-03-03 18:34:00,50.1,38.0,29.88,North,350,4.0,13.0,63,0.00,,,0.29,weatherlink.com 1.10,2013-03-03 16:34:00,
2013-03-03 18:49:00,49.8,38.0,29.89,North,355,5.0,8.0,65,0.00,,,0.29,weatherlink.com 1.10,2013-03-03 16:49:00,
2013-03-03 19:04:00,49.6,38.0,29.89,ENE,67,5.0,7.0,64,0.00,,,0.29,weatherlink.com 1.10,2013-03-03 17:04:00,
2013-03-03 19:19:00,49.2,38.0,29.90,North,11,4.0,8.0,66,0.00,,,0.29,weatherlink.com 1.10,2013-03-03 17:19:00,
2013-03-03 19:34:00,48.8,38.0,29.91,NNE,12,0.0,6.0,67,0.00,,,0.29,weatherlink.com 1.10,2013-03-03 17:34:00,
2013-03-03 19:49:00,48.8,38.0,29.91,North,350,6.0,9.0,66,0.00,,,0.29,weatherlink.com 1.10,2013-03-03 17:49:00,
2013-03-03 20:04:00,49.1,38.0,29.92,NNW,339,2.0,4.0,66,0.00,,,0.29,weatherlink.com 1.10,2013-03-03 18:04:00,
2013-03-03 20:19:00,48.4,38.0,29.93,North,360,0.0,4.0,68,0.00,,,0.29,weatherlink.com 1.10,2013-03-03 18:19:00,
2013-03-03 20:49:00,48.4,38.0,29.93,NNW,337,0.0,3.0,68,0.00,,,0.29,weatherlink.com 1.10,2013-03-03 18:49:00,
2013-03-03 21:04:00,48.1,38.0,29.93,NNE,25,0.0,4.0,69,0.00,,,0.29,weatherlink.com 1.10,2013-03-03 19:04:00,
2013-03-03 21:20:00,47.9,37.0,29.94,NW,325,0.0,3.0,67,0.00,,,0.29,weatherlink.com 1.10,2013-03-03 19:20:00,
2013-03-03 21:35:00,47.7,37.0,29.94,NNE,29,0.0,3.0,67,0.00,,,0.29,weatherlink.com 1.10,2013-03-03 19:35:00,
2013-03-03 21:50:00,47.6,37.0,29.94,NE,40,1.0,2.0,67,0.00,,,0.29,weatherlink.com 1.10,2013-03-03 19:50:00,
2013-03-03 22:05:00,47.4,37.0,29.95,NNE,19,0.0,3.0,68,0.00,,,0.29,weatherlink.com 1.10,2013-03-03 20:05:00,
2013-03-03 22:20:00,47.2,37.0,29.95,NNE,19,0.0,1.0,69,0.00,,,0.29,weatherlink.com 1.10,2013-03-03 20:20:00,
2013-03-03 22:35:00,47.2,38.0,29.95,NE,44,1.0,4.0,70,0.00,,,0.29,weatherlink.com 1.10,2013-03-03 20:35:00,
2013-03-03 22:50:00,46.9,38.0,29.96,NE,44,0.0,2.0,71,0.00,,,0.29,weatherlink.com 1.10,2013-03-03 20:50:00,
2013-03-03 23:05:00,46.8,39.0,29.95,NE,44,0.0,1.0,73,0.00,,,0.29,weatherlink.com 1.10,2013-03-03 21:05:00,
2013-03-03 23:20:00,46.7,39.0,29.95,NNW,338,0.0,3.0,74,0.00,,,0.29,weatherlink.com 1.10,2013-03-03 21:20:00,
2013-03-03 23:35:00,46.7,39.0,29.96,NNW,338,0.0,2.0,74,0.00,,,0.29,weatherlink.com 1.10,2013-03-03 21:35:00,
2013-03-03 23:50:00,46.6,38.0,29.96,NNW,338,0.0,2.0,73,0.00,,,0.29,weatherlink.com 1.10,2013-03-03 21:50:00,